Guatay, CA (91931)

7:21 PM PDT on March 30, 2015 (GMT -0700)
Rockin S on Mizpah Descanso | | Change Station
CLOSE
Current Station
Personal Weather Station
Location: Descanso, CA
Elevation: 3625 ft
Nearby Weather Stations

Elev 3625 ft 32.86 °N, 116.61 °W | Updated 3 seconds ago

Clear
Clear
65.7 °F
Feels Like 65.7 °F
N
1.1
Wind Variable Wind from WNW
Gusts 3.0 mph

Today
High -- | Low -- °F
--% Chance of Precip.
Yesterday
High -- | Low -- °F
Precip. -- in
6:36 AM 7:04 PM
Waxing Gibbous, 83% visible
Pressure 29.93 in
Visibility -9999.0 miles
Clouds
Dew Point 46 °F
Humidity 49%
Rainfall 0.00 in
Snow Depth Not available.
UV Not available.
Pollen 11.80 out of 12
Air Quality Not available.
Flu Activity Not available.
METAR KCZZ 310152Z AUTO 22007KT 21/04 A2998 RMK AO1 SLP135 T02060039

More Conditions Fewer Conditions

Pressure 29.93 in
Visibility -9999.0 miles
Clouds
Dew Point 46 °F
Humidity 49%
Rainfall 0.00 in
Snow Depth Not available.
UV Not available.
Pollen 11.80 out of 12
Air Quality Not available.
Flu Activity Not available.
METAR KCZZ 310152Z AUTO 22007KT 21/04 A2998 RMK AO1 SLP135 T02060039

More Conditions Fewer Conditions

10-Day Weather Forecast

Almanac

Astronomy

Mar. 30, 2015 Rise Set
Actual Time
Civil Twilight
Nautical Twilight
Astronomical Twilight
Moon
Length of Visible Light
Length of Day
Tomorrow will be .
, % of the Moon is Illuminated

Today's Extremes

State Highs State Lows

Community

WunderPhotos

Upload Photos

1,809,665 photos uploaded!

WunderBlogs® & News

Nearby

Air Quality

  Air Quality AQ Index Pollutant
Not available.

Snow Depth

Station Depth Elevation

Earthquake Activity

City Distance Mag. Time & Date
Minimum magnitude displayed is 2.5.

Coastal Water Temperatures

Place Temperature

Stations

Nearby Weather Stations

Station Location Temp. Windchill Dew Point Humidity Wind Precip. Elev Updated Type